Terminal Aerodrome Forecast
Issued by NWS

Home | Current Version | Previous Version | Text Only | Print | Product List | Glossary On
Versions: 1 2 3 4 5 6 7 8 9 10 11 12 13
000
FTAK31 PAFA 171139
TAFAOR
TAF
PAOR 171139Z 1712/1812 00000KT P6SM FEW070 BKN160
     FM172200 24004KT P6SM VCTS SCT050CB BKN120
     FM180400 29004KT P6SM FEW050 SCT100 BKN200=

USA.gov is the U.S. government's official web portal to all federal, state and local government web resources and services.